createdAt,value
2022-08-16T00:01:24.413Z,16.30
2022-08-16T00:03:52.831Z,16.20
2022-08-16T00:06:20.338Z,16.10
2022-08-16T00:08:47.968Z,16.10
2022-08-16T00:11:16.845Z,16.00
2022-08-16T00:13:53.699Z,15.90
2022-08-16T00:17:01.705Z,15.80
2022-08-16T00:19:16.978Z,15.70
2022-08-16T00:21:44.743Z,15.80
2022-08-16T00:24:13.180Z,15.70
2022-08-16T00:26:58.443Z,15.80
2022-08-16T00:29:25.574Z,15.90
2022-08-16T00:31:59.786Z,16.00
2022-08-16T00:34:44.637Z,16.00
2022-08-16T00:37:18.463Z,16.00
2022-08-16T00:39:58.028Z,16.10
2022-08-16T00:42:31.681Z,16.10
2022-08-16T00:45:35.481Z,16.20
2022-08-16T00:48:30.495Z,16.30
2022-08-16T00:50:55.536Z,16.30
2022-08-16T00:53:23.527Z,16.40
2022-08-16T00:55:54.934Z,16.30
2022-08-16T00:58:34.900Z,16.30
2022-08-16T01:01:02.570Z,16.30
2022-08-16T01:03:34.881Z,16.30
2022-08-16T01:06:39.751Z,16.40
2022-08-16T01:08:54.556Z,16.40
2022-08-16T01:11:24.410Z,16.30
2022-08-16T01:13:56.597Z,16.30
2022-08-16T01:16:26.567Z,16.40
2022-08-16T01:19:13.133Z,16.30
2022-08-16T01:22:49.850Z,16.30
2022-08-16T01:24:53.824Z,16.40
2022-08-16T01:27:26.987Z,16.20
2022-08-16T01:29:59.775Z,16.30
2022-08-16T01:32:33.646Z,16.30
2022-08-16T01:35:04.104Z,16.40
2022-08-16T01:37:39.225Z,16.50
2022-08-16T01:40:10.769Z,16.60
2022-08-16T01:42:37.588Z,16.50
2022-08-16T01:45:09.495Z,16.50
2022-08-16T01:47:38.898Z,16.50
2022-08-16T01:50:43.022Z,16.50
2022-08-16T01:53:04.338Z,16.50
2022-08-16T01:55:42.837Z,16.60
2022-08-16T01:58:22.652Z,16.50
2022-08-16T02:00:49.883Z,16.40
2022-08-16T02:03:18.259Z,16.30
2022-08-16T02:05:52.508Z,16.30
2022-08-16T02:08:33.355Z,16.30
2022-08-16T02:11:06.886Z,16.40
2022-08-16T02:13:35.003Z,16.50
2022-08-16T02:16:02.360Z,16.50
2022-08-16T02:18:29.138Z,16.60
2022-08-16T02:20:59.642Z,16.60
2022-08-16T02:23:26.518Z,16.60
2022-08-16T02:25:56.627Z,16.50
2022-08-16T02:28:26.837Z,16.40
2022-08-16T02:30:57.102Z,16.40
2022-08-16T02:33:44.410Z,16.50
2022-08-16T02:36:47.859Z,16.40
2022-08-16T02:39:08.100Z,16.40
2022-08-16T02:41:39.249Z,16.30
2022-08-16T02:44:06.891Z,16.30
2022-08-16T02:46:34.819Z,16.20
2022-08-16T02:49:04.262Z,16.10
2022-08-16T02:51:36.204Z,16.10
2022-08-16T02:54:03.996Z,16.00
2022-08-16T02:56:33.645Z,15.90
2022-08-16T02:59:00.563Z,15.90
2022-08-16T03:01:36.526Z,15.80
2022-08-16T03:04:29.976Z,15.80
2022-08-16T03:07:00.472Z,15.70
2022-08-16T03:09:38.500Z,15.70
2022-08-16T03:12:06.605Z,15.60
2022-08-16T03:14:34.363Z,15.70
2022-08-16T03:17:02.604Z,15.60
2022-08-16T03:19:47.098Z,15.60
2022-08-16T03:22:28.125Z,15.40
2022-08-16T03:24:59.053Z,15.40
2022-08-16T03:27:31.164Z,15.20
2022-08-16T03:30:16.179Z,15.30
2022-08-16T03:32:48.026Z,15.20
2022-08-16T03:35:21.064Z,15.20
2022-08-16T03:38:01.465Z,15.20
2022-08-16T03:40:37.165Z,15.10
2022-08-16T03:43:20.538Z,15.20
2022-08-16T03:45:53.429Z,15.20
2022-08-16T03:48:36.913Z,15.00
2022-08-16T03:51:13.038Z,15.00
2022-08-16T03:53:57.865Z,15.10
2022-08-16T03:56:28.178Z,15.10
2022-08-16T03:58:59.297Z,15.00
2022-08-16T04:01:30.869Z,15.00
2022-08-16T04:03:58.531Z,15.00
2022-08-16T04:06:27.063Z,15.00
2022-08-16T04:08:54.900Z,14.90
2022-08-16T04:11:23.678Z,14.90
2022-08-16T04:14:00.680Z,14.80
2022-08-16T04:16:41.807Z,14.90
2022-08-16T04:19:26.748Z,14.70
2022-08-16T04:22:00.921Z,14.60
2022-08-16T04:24:31.629Z,14.60
2022-08-16T04:26:59.379Z,14.50
2022-08-16T04:29:27.811Z,14.50
2022-08-16T04:32:11.147Z,14.50
2022-08-16T04:34:41.336Z,14.60
2022-08-16T04:37:09.403Z,14.60
2022-08-16T04:39:46.733Z,14.70
2022-08-16T04:42:26.296Z,14.70
2022-08-16T04:44:56.071Z,14.80
2022-08-16T04:47:31.724Z,14.90
2022-08-16T04:50:09.781Z,14.90
2022-08-16T04:52:37.804Z,14.90
2022-08-16T04:55:07.528Z,14.70
2022-08-16T04:57:35.991Z,14.70
2022-08-16T05:00:32.423Z,14.70
2022-08-16T05:02:55.812Z,14.80
2022-08-16T05:05:24.170Z,14.80
2022-08-16T05:07:59.466Z,14.90
2022-08-16T05:10:29.757Z,14.90
2022-08-16T05:12:58.080Z,15.00
2022-08-16T05:15:25.789Z,15.00
2022-08-16T05:17:58.376Z,15.00
2022-08-16T05:20:35.151Z,14.90
2022-08-16T05:23:06.806Z,15.00
2022-08-16T05:25:40.993Z,15.00
2022-08-16T05:28:16.417Z,15.00
2022-08-16T05:30:51.196Z,15.00
2022-08-16T05:33:22.640Z,15.00
2022-08-16T05:35:54.528Z,15.10
2022-08-16T05:38:39.940Z,15.20
2022-08-16T05:41:10.791Z,15.30
2022-08-16T05:43:46.959Z,15.40
2022-08-16T05:46:29.564Z,15.40
2022-08-16T05:49:09.085Z,15.40
2022-08-16T05:51:40.256Z,15.50
2022-08-16T05:54:11.383Z,15.60
2022-08-16T05:56:41.792Z,15.60
2022-08-16T05:59:13.423Z,15.60
2022-08-16T06:01:41.375Z,15.70
2022-08-16T06:04:12.833Z,15.80
2022-08-16T06:06:57.774Z,15.90
2022-08-16T06:09:37.223Z,15.90
2022-08-16T06:12:26.259Z,16.00
2022-08-16T06:15:04.529Z,16.10
2022-08-16T06:17:43.291Z,16.20
2022-08-16T06:20:34.835Z,16.40
2022-08-16T06:23:11.750Z,16.50
2022-08-16T06:26:07.410Z,16.60
2022-08-16T06:28:37.283Z,16.80
2022-08-16T06:31:12.184Z,16.90
2022-08-16T06:33:44.566Z,17.10
2022-08-16T06:36:14.009Z,17.30
2022-08-16T06:38:52.314Z,17.40
2022-08-16T06:41:39.752Z,17.60
2022-08-16T06:44:21.500Z,17.80
2022-08-16T06:46:58.406Z,18.00
2022-08-16T06:49:30.295Z,18.20
2022-08-16T06:52:02.950Z,18.40
2022-08-16T06:54:36.115Z,18.50
2022-08-16T06:57:03.311Z,18.70
2022-08-16T06:59:52.238Z,18.90
2022-08-16T07:02:33.480Z,19.10
2022-08-16T07:05:02.266Z,19.20
2022-08-16T07:07:33.828Z,19.30
2022-08-16T07:10:08.850Z,19.50
2022-08-16T07:12:47.549Z,19.60
2022-08-16T07:15:25.614Z,19.70
2022-08-16T07:17:53.423Z,19.80
2022-08-16T07:20:29.585Z,19.90
2022-08-16T07:22:58.970Z,20.10
2022-08-16T07:25:40.484Z,20.20
2022-08-16T07:28:09.311Z,20.20
2022-08-16T07:30:46.692Z,20.30
2022-08-16T07:33:53.323Z,20.40
2022-08-16T07:36:13.599Z,20.40
2022-08-16T07:38:49.537Z,20.60
2022-08-16T07:41:18.569Z,20.60
2022-08-16T07:43:49.731Z,20.60
2022-08-16T07:46:38.548Z,20.50
2022-08-16T07:49:11.686Z,20.50
2022-08-16T07:51:41.523Z,20.70
2022-08-16T07:54:14.416Z,20.90
2022-08-16T07:56:48.621Z,20.90
2022-08-16T07:59:15.918Z,20.90
2022-08-16T08:01:43.451Z,21.00
2022-08-16T08:04:13.282Z,21.20
2022-08-16T08:06:42.781Z,21.30
2022-08-16T08:09:16.230Z,21.40
2022-08-16T08:11:59.958Z,21.60
2022-08-16T08:14:30.435Z,21.80
2022-08-16T08:17:01.770Z,21.80
2022-08-16T08:19:30.985Z,21.80
2022-08-16T08:21:59.286Z,21.80
2022-08-16T08:24:44.052Z,21.80
2022-08-16T08:27:11.630Z,21.70
2022-08-16T08:29:40.427Z,21.90
2022-08-16T08:32:57.449Z,22.10
2022-08-16T08:35:04.719Z,22.00
2022-08-16T08:37:55.453Z,22.00
2022-08-16T08:40:26.719Z,21.90
2022-08-16T08:43:11.430Z,22.00
2022-08-16T08:45:53.213Z,22.10
2022-08-16T08:48:33.594Z,22.30
2022-08-16T08:51:08.908Z,22.50
2022-08-16T08:53:43.195Z,22.30
2022-08-16T08:56:23.103Z,22.20
2022-08-16T08:58:59.152Z,22.20
2022-08-16T09:01:42.772Z,22.20
2022-08-16T09:04:23.408Z,22.40
2022-08-16T09:06:51.007Z,22.80
2022-08-16T09:09:19.501Z,23.00
2022-08-16T09:12:04.456Z,23.30
2022-08-16T09:14:49.686Z,23.10
2022-08-16T09:17:45.661Z,23.10
2022-08-16T09:20:13.562Z,23.20
2022-08-16T09:22:41.958Z,23.60
2022-08-16T09:25:12.604Z,23.50
2022-08-16T09:27:56.664Z,23.60
2022-08-16T09:30:34.115Z,23.50
2022-08-16T09:33:06.793Z,23.60
2022-08-16T09:35:37.515Z,23.80
2022-08-16T09:38:08.508Z,23.90
2022-08-16T09:40:42.743Z,24.10
2022-08-16T09:43:44.759Z,24.30
2022-08-16T09:46:44.397Z,24.40
2022-08-16T09:48:56.553Z,24.50
2022-08-16T09:51:26.305Z,24.60
2022-08-16T09:53:57.685Z,24.50
2022-08-16T09:56:35.341Z,24.40
2022-08-16T09:59:08.159Z,24.60
2022-08-16T10:01:43.387Z,24.80
2022-08-16T10:04:29.204Z,24.70
2022-08-16T10:09:25.241Z,25.30
2022-08-16T10:12:11.160Z,25.60
2022-08-16T10:14:46.226Z,25.40
2022-08-16T10:17:13.228Z,25.60
2022-08-16T10:19:40.052Z,25.80
2022-08-16T10:22:06.906Z,25.70
2022-08-16T10:24:34.076Z,25.80
2022-08-16T10:27:25.139Z,25.90
2022-08-16T10:30:01.464Z,26.00
2022-08-16T10:32:33.993Z,26.20
2022-08-16T10:35:03.564Z,26.20
2022-08-16T10:37:32.592Z,26.20
2022-08-16T10:40:28.651Z,26.20
2022-08-16T10:42:54.694Z,26.30
2022-08-16T10:45:21.610Z,26.60
2022-08-16T10:48:00.507Z,26.90
2022-08-16T10:50:31.537Z,26.70
2022-08-16T10:52:58.991Z,26.70
2022-08-16T10:55:44.742Z,26.70
2022-08-16T10:58:16.936Z,26.80
2022-08-16T11:00:45.968Z,27.10
2022-08-16T11:06:03.246Z,27.50
2022-08-16T11:08:37.016Z,27.70
2022-08-16T11:11:12.707Z,27.90
2022-08-16T11:14:10.663Z,27.80
2022-08-16T11:19:22.579Z,27.80
2022-08-16T11:24:42.395Z,28.00
2022-08-16T11:27:23.197Z,27.50
2022-08-16T11:29:53.046Z,27.20
2022-08-16T11:32:29.922Z,27.40
2022-08-16T11:35:13.201Z,27.60
2022-08-16T11:38:23.545Z,28.00
2022-08-16T11:40:58.160Z,28.10
2022-08-16T11:43:31.238Z,28.30
2022-08-16T11:46:42.922Z,28.40
2022-08-16T11:48:51.607Z,28.00
2022-08-16T11:51:18.862Z,27.70
2022-08-16T11:53:46.204Z,27.90
2022-08-16T11:56:14.885Z,28.10
2022-08-16T11:58:41.974Z,28.20
2022-08-16T12:01:10.730Z,28.30
2022-08-16T12:03:38.055Z,28.30
2022-08-16T12:06:30.298Z,28.50
2022-08-16T12:09:01.778Z,28.70
2022-08-16T12:11:31.667Z,29.00
2022-08-16T12:14:04.498Z,29.20
2022-08-16T12:16:34.174Z,29.50
2022-08-16T12:19:05.938Z,29.70
2022-08-16T12:21:36.034Z,29.90
2022-08-16T12:24:21.569Z,30.00
2022-08-16T12:26:50.789Z,30.30
2022-08-16T12:29:17.567Z,30.00
2022-08-16T12:32:01.481Z,29.70
2022-08-16T12:34:31.285Z,29.80
2022-08-16T12:37:03.587Z,30.20
2022-08-16T12:39:31.611Z,30.40
2022-08-16T12:41:59.400Z,30.20
2022-08-16T12:44:31.440Z,30.20
2022-08-16T12:47:16.963Z,30.00
2022-08-16T12:49:43.736Z,29.70
2022-08-16T12:52:33.205Z,29.60
2022-08-16T12:55:03.313Z,29.80
2022-08-16T12:57:36.450Z,30.30
2022-08-16T13:00:08.029Z,30.10
2022-08-16T13:02:36.369Z,30.20
2022-08-16T13:05:04.440Z,30.30
2022-08-16T13:07:42.560Z,30.30
2022-08-16T13:10:21.390Z,30.00
2022-08-16T13:13:05.876Z,29.90
2022-08-16T13:15:36.262Z,29.90
2022-08-16T13:18:26.883Z,30.20
2022-08-16T13:21:00.452Z,30.60
2022-08-16T13:23:27.252Z,30.50
2022-08-16T13:25:57.273Z,30.80
2022-08-16T13:28:24.373Z,30.90
2022-08-16T13:30:55.154Z,30.90
2022-08-16T13:33:30.200Z,31.00
2022-08-16T13:36:01.209Z,31.50
2022-08-16T13:38:37.808Z,31.60
2022-08-16T13:41:09.623Z,31.60
2022-08-16T13:43:37.993Z,31.40
2022-08-16T13:46:05.534Z,31.60
2022-08-16T13:48:42.610Z,31.10
2022-08-16T13:51:16.629Z,30.70
2022-08-16T13:53:54.201Z,30.80
2022-08-16T13:56:37.174Z,30.90
2022-08-16T13:59:19.769Z,30.90
2022-08-16T14:01:55.337Z,31.30
2022-08-16T14:04:28.820Z,31.30
2022-08-16T14:07:01.362Z,31.30
2022-08-16T14:09:32.022Z,31.70
2022-08-16T14:12:00.665Z,32.00
2022-08-16T14:14:30.173Z,32.40
2022-08-16T14:16:59.539Z,32.60
2022-08-16T14:19:27.745Z,32.10
2022-08-16T14:22:15.380Z,32.40
2022-08-16T14:24:47.040Z,32.20
2022-08-16T14:27:19.516Z,31.90
2022-08-16T14:29:49.920Z,31.90
2022-08-16T14:32:32.630Z,32.00
2022-08-16T14:35:07.432Z,32.40
2022-08-16T14:37:35.211Z,33.00
2022-08-16T14:40:03.630Z,33.30
2022-08-16T14:42:30.524Z,33.50
2022-08-16T14:44:57.355Z,33.70
2022-08-16T14:47:34.203Z,33.50
2022-08-16T14:50:05.943Z,33.30
2022-08-16T14:55:20.060Z,33.60
2022-08-16T14:57:47.506Z,33.90
2022-08-16T15:00:15.726Z,33.70
2022-08-16T15:02:49.222Z,33.70
2022-08-16T15:05:16.774Z,33.40
2022-08-16T15:07:43.792Z,33.00
2022-08-16T15:10:12.111Z,32.80
2022-08-16T15:12:55.519Z,33.00
2022-08-16T15:15:25.379Z,33.30
2022-08-16T15:17:54.006Z,33.50
2022-08-16T15:20:26.150Z,33.50
2022-08-16T15:22:53.499Z,33.80
2022-08-16T15:25:31.854Z,33.40
2022-08-16T15:28:02.451Z,32.80
2022-08-16T15:30:58.410Z,32.10
2022-08-16T15:33:20.539Z,31.40
2022-08-16T15:35:50.204Z,30.70
2022-08-16T15:38:43.494Z,30.00
2022-08-16T15:41:05.007Z,29.30
2022-08-16T15:43:39.193Z,28.70
2022-08-16T15:46:53.970Z,28.40
2022-08-16T15:49:12.086Z,28.10
2022-08-16T15:51:40.027Z,28.10
2022-08-16T15:54:21.586Z,27.90
2022-08-16T15:56:55.314Z,27.80
2022-08-16T15:59:27.125Z,27.60
2022-08-16T16:01:55.924Z,27.50
2022-08-16T16:04:25.913Z,27.60
2022-08-16T16:06:55.144Z,27.60
2022-08-16T16:09:36.996Z,27.60
2022-08-16T16:12:16.359Z,27.50
2022-08-16T16:14:52.557Z,27.40
2022-08-16T16:17:19.271Z,27.30
2022-08-16T16:19:49.605Z,27.20
2022-08-16T16:22:21.639Z,27.20
2022-08-16T16:24:50.256Z,27.10
2022-08-16T16:27:17.131Z,27.10
2022-08-16T16:29:46.342Z,27.10
2022-08-16T16:32:33.185Z,26.90
2022-08-16T16:35:01.781Z,26.90
2022-08-16T16:37:28.662Z,26.90
2022-08-16T16:39:56.222Z,26.80
2022-08-16T16:42:29.264Z,26.70
2022-08-16T16:45:01.306Z,26.70
2022-08-16T16:47:30.126Z,26.60
2022-08-16T16:50:09.180Z,26.60
2022-08-16T16:52:44.396Z,26.50
2022-08-16T16:55:14.645Z,26.50
2022-08-16T16:58:01.256Z,26.40
2022-08-16T17:00:38.326Z,26.20
2022-08-16T17:03:17.294Z,26.10
2022-08-16T17:05:57.223Z,25.90
2022-08-16T17:08:25.578Z,25.80
2022-08-16T17:10:54.015Z,25.70
2022-08-16T17:13:25.349Z,25.60
2022-08-16T17:15:53.875Z,25.60
2022-08-16T17:19:17.632Z,25.50
2022-08-16T17:21:10.331Z,25.30
2022-08-16T17:23:58.256Z,25.30
2022-08-16T17:26:30.199Z,25.30
2022-08-16T17:29:02.161Z,25.10
2022-08-16T17:31:40.605Z,25.10
2022-08-16T17:34:29.126Z,25.00
2022-08-16T17:36:55.467Z,24.90
2022-08-16T17:39:29.310Z,24.80
2022-08-16T17:41:58.119Z,24.80
2022-08-16T17:44:25.309Z,24.70
2022-08-16T17:46:53.164Z,24.60
2022-08-16T17:49:21.542Z,24.60
2022-08-16T17:51:48.897Z,24.50
2022-08-16T17:54:29.730Z,24.40
2022-08-16T17:57:01.262Z,24.40
2022-08-16T17:59:29.219Z,24.40
2022-08-16T18:01:57.172Z,24.20
2022-08-16T18:04:48.815Z,24.10
2022-08-16T18:07:11.573Z,24.00
2022-08-16T18:09:40.784Z,23.90
2022-08-16T18:12:41.547Z,23.80
2022-08-16T18:15:09.177Z,23.60
2022-08-16T18:17:35.960Z,23.50
2022-08-16T18:20:04.128Z,23.50
2022-08-16T18:22:33.760Z,23.40
2022-08-16T18:25:01.059Z,23.30
2022-08-16T18:27:29.734Z,23.30
2022-08-16T18:29:56.539Z,23.30
2022-08-16T18:32:24.843Z,23.30
2022-08-16T18:34:54.468Z,23.20
2022-08-16T18:37:23.266Z,23.10
2022-08-16T18:39:50.193Z,23.00
2022-08-16T18:42:17.026Z,22.80
2022-08-16T18:44:44.392Z,22.70
2022-08-16T18:47:11.435Z,22.60
2022-08-16T18:49:38.263Z,22.50
2022-08-16T18:52:05.562Z,22.40
2022-08-16T18:55:01.818Z,22.40
2022-08-16T18:57:24.885Z,22.30
2022-08-16T18:59:51.706Z,22.10
2022-08-16T19:02:57.107Z,22.00
2022-08-16T19:05:25.369Z,21.90
2022-08-16T19:07:52.219Z,21.80
2022-08-16T19:10:19.738Z,21.80
2022-08-16T19:12:46.568Z,21.70
2022-08-16T19:15:17.401Z,21.70
2022-08-16T19:17:45.283Z,21.60
2022-08-16T19:20:17.958Z,21.50
2022-08-16T19:23:05.453Z,21.40
2022-08-16T19:25:46.663Z,21.40
2022-08-16T19:28:51.119Z,21.40
2022-08-16T19:31:19.168Z,21.30
2022-08-16T19:33:53.380Z,21.10
2022-08-16T19:36:30.999Z,21.10
2022-08-16T19:39:08.781Z,21.00
2022-08-16T19:41:42.778Z,20.80
2022-08-16T19:44:10.020Z,20.80
2022-08-16T19:46:38.038Z,20.70
2022-08-16T19:49:05.577Z,20.70
2022-08-16T19:51:32.329Z,20.70
2022-08-16T19:53:59.213Z,20.60
2022-08-16T19:56:26.828Z,20.60
2022-08-16T20:01:43.101Z,20.50
2022-08-16T20:04:13.447Z,20.40
2022-08-16T20:06:42.045Z,20.30
2022-08-16T20:09:10.481Z,20.20
2022-08-16T20:11:43.444Z,20.10
2022-08-16T20:14:11.188Z,20.10
2022-08-16T20:16:46.703Z,20.10
2022-08-16T20:19:13.741Z,20.10
2022-08-16T20:21:40.859Z,20.10
2022-08-16T20:24:32.987Z,20.00
2022-08-16T20:26:54.652Z,19.90
2022-08-16T20:29:21.391Z,20.00
2022-08-16T20:31:48.138Z,20.00
2022-08-16T20:34:15.777Z,19.90
2022-08-16T20:36:43.482Z,19.90
2022-08-16T20:39:13.414Z,19.80
2022-08-16T20:41:43.757Z,19.70
2022-08-16T20:44:12.727Z,19.70
2022-08-16T20:46:39.957Z,19.80
2022-08-16T20:49:09.213Z,19.80
2022-08-16T20:51:46.679Z,19.80
2022-08-16T20:54:14.733Z,19.70
2022-08-16T20:56:41.646Z,19.80
2022-08-16T20:59:08.379Z,19.70
2022-08-16T21:01:46.266Z,19.70
2022-08-16T21:04:16.835Z,19.70
2022-08-16T21:06:53.635Z,19.60
2022-08-16T21:09:26.499Z,19.60
2022-08-16T21:11:54.910Z,19.50
2022-08-16T21:14:22.615Z,19.30
2022-08-16T21:16:49.812Z,19.20
2022-08-16T21:19:16.868Z,19.40
2022-08-16T21:21:43.588Z,19.50
2022-08-16T21:24:10.451Z,19.60
2022-08-16T21:26:38.984Z,19.60
2022-08-16T21:29:06.652Z,19.50
2022-08-16T21:31:40.254Z,19.40
2022-08-16T21:34:08.248Z,19.20
2022-08-16T21:36:36.527Z,19.20
2022-08-16T21:39:06.896Z,19.20
2022-08-16T21:41:35.471Z,19.20
2022-08-16T21:44:02.314Z,19.30
2022-08-16T21:46:29.021Z,19.30
2022-08-16T21:48:55.785Z,19.30
2022-08-16T21:51:22.545Z,19.00
2022-08-16T21:53:49.335Z,18.90
2022-08-16T21:56:17.376Z,18.90
2022-08-16T21:58:45.831Z,19.00
2022-08-16T22:01:13.197Z,19.00
2022-08-16T22:03:39.921Z,19.10
2022-08-16T22:06:12.155Z,19.10
2022-08-16T22:08:51.159Z,19.10
2022-08-16T22:11:25.058Z,19.00
2022-08-16T22:13:58.070Z,19.00
2022-08-16T22:16:31.827Z,18.90
2022-08-16T22:18:58.968Z,18.80
2022-08-16T22:21:26.026Z,18.90
2022-08-16T22:23:56.720Z,18.90
2022-08-16T22:26:30.303Z,18.90
2022-08-16T22:28:59.637Z,18.90
2022-08-16T22:31:27.198Z,18.90
2022-08-16T22:33:53.999Z,18.90
2022-08-16T22:36:20.706Z,18.90
2022-08-16T22:38:56.285Z,18.80
2022-08-16T22:41:24.865Z,18.70
2022-08-16T22:43:51.815Z,18.60
2022-08-16T22:46:19.496Z,18.60
2022-08-16T22:48:48.250Z,18.50
2022-08-16T22:51:14.959Z,18.50
2022-08-16T22:53:41.683Z,18.50
2022-08-16T22:56:08.924Z,18.60
2022-08-16T22:58:36.978Z,18.50
2022-08-16T23:01:06.730Z,18.50
2022-08-16T23:03:34.107Z,18.40
2022-08-16T23:06:01.259Z,18.50
2022-08-16T23:08:38.031Z,18.50
2022-08-16T23:11:06.606Z,18.40
2022-08-16T23:13:33.327Z,18.10
2022-08-16T23:16:11.275Z,18.10
2022-08-16T23:18:39.386Z,18.00
2022-08-16T23:21:09.319Z,17.90
2022-08-16T23:23:37.158Z,18.00
2022-08-16T23:26:36.510Z,18.20
2022-08-16T23:28:51.336Z,18.20
2022-08-16T23:31:18.664Z,18.20
2022-08-16T23:33:45.873Z,18.10
2022-08-16T23:36:13.349Z,18.00
2022-08-16T23:38:40.263Z,18.10
2022-08-16T23:41:12.931Z,18.10
2022-08-16T23:43:44.614Z,18.10
2022-08-16T23:46:18.128Z,18.10
2022-08-16T23:49:56.622Z,18.00
2022-08-16T23:51:32.900Z,18.10
2022-08-16T23:54:00.604Z,18.00
2022-08-16T23:56:27.420Z,17.70
2022-08-16T23:59:02.380Z,17.70
